Time;durP1;ratioP1;P1;durP2;ratioP2;P2;SDS_P1;SDS_P2;PMS_P1;PMS_P2;Temp;Humidity;BMP_temperature;BMP_pressure;BME280_temperature;BME280_humidity;BME280_pressure;Samples;Min_cycle;Max_cycle;Signal;HPM_P1;HPM_P2
2022/06/26 00:00:46;;;;;;;2.40;2.20;;;18.70;99.90;;;;;;4318454;28;10000543;-75
2022/06/26 00:03:11;;;;;;;2.60;2.38;;;18.60;99.90;;;;;;5017124;28;20022;-75
2022/06/26 00:05:37;;;;;;;2.40;2.20;;;18.50;99.90;;;;;;5013813;28;20014;-75
2022/06/26 00:08:03;;;;;;;2.50;2.30;;;18.40;99.90;;;;;;5017866;28;20064;-75
2022/06/26 00:10:29;;;;;;;3.72;2.40;;;18.40;99.90;;;;;;5025138;28;20341;-76
2022/06/26 00:12:54;;;;;;;2.50;2.30;;;18.40;99.90;;;;;;5021391;28;20033;-75
2022/06/26 00:15:21;;;;;;;2.50;2.30;;;18.30;99.90;;;;;;5018045;28;20405;-75
2022/06/26 00:17:46;;;;;;;2.20;2.10;;;18.30;99.90;;;;;;5020142;28;20385;-75
2022/06/26 00:20:12;;;;;;;2.67;2.45;;;18.30;99.90;;;;;;5017023;28;20033;-75
2022/06/26 00:22:38;;;;;;;2.42;2.22;;;18.20;99.90;;;;;;5017896;28;20654;-75
2022/06/26 00:25:04;;;;;;;2.50;2.30;;;18.20;99.90;;;;;;5019630;28;20029;-76
2022/06/26 00:27:30;;;;;;;2.50;2.30;;;18.20;99.90;;;;;;5011120;28;20424;-75
2022/06/26 00:29:56;;;;;;;2.63;2.42;;;18.20;99.90;;;;;;5024617;28;20029;-76
2022/06/26 00:32:21;;;;;;;2.47;2.28;;;18.10;99.90;;;;;;5019020;28;20108;-75
2022/06/26 00:34:47;;;;;;;4.72;2.70;;;18.10;99.90;;;;;;5012433;28;20564;-75
2022/06/26 00:37:12;;;;;;;3.60;3.30;;;18.10;99.90;;;;;;5015536;28;20018;-75
2022/06/26 00:39:38;;;;;;;6.45;4.00;;;18.10;99.90;;;;;;5022016;28;20160;-75
2022/06/26 00:42:04;;;;;;;6.38;4.00;;;18.00;99.90;;;;;;5026625;28;20525;-75
2022/06/26 00:44:30;;;;;;;4.55;4.07;;;17.90;99.90;;;;;;5017371;28;20021;-75
2022/06/26 00:46:56;;;;;;;3.97;3.67;;;17.80;99.90;;;;;;5020956;28;20394;-75
2022/06/26 00:49:21;;;;;;;4.30;3.90;;;17.70;99.90;;;;;;5025869;28;20033;-75
2022/06/26 00:51:54;;;;;;;4.03;3.72;;;17.60;99.90;;;;;;5014702;28;20415;-76
2022/06/26 00:54:21;;;;;;;3.60;3.30;;;17.60;99.90;;;;;;5025023;28;20032;-75
2022/06/26 00:56:47;;;;;;;2.90;2.70;;;17.60;99.90;;;;;;5022643;28;20030;-76
2022/06/26 00:59:13;;;;;;;4.38;3.10;;;17.60;99.90;;;;;;5018403;28;20056;-76
2022/06/26 01:01:39;;;;;;;3.42;3.13;;;17.60;99.90;;;;;;5017709;28;20036;-75
2022/06/26 01:04:05;;;;;;;3.88;3.10;;;17.60;99.90;;;;;;5023749;28;20029;-75
2022/06/26 01:06:32;;;;;;;3.20;2.90;;;17.60;99.90;;;;;;5023985;28;20107;-75
2022/06/26 01:08:58;;;;;;;2.88;2.55;;;17.60;99.90;;;;;;5021244;28;20112;-76
2022/06/26 01:11:27;;;;;;;3.08;2.60;;;17.60;99.90;;;;;;5029552;28;20139;-75
2022/06/26 01:13:55;;;;;;;2.90;2.70;;;17.60;99.90;;;;;;5017916;28;20033;-75
2022/06/26 01:16:22;;;;;;;3.47;3.00;;;17.60;99.90;;;;;;5027644;28;20384;-75
2022/06/26 01:18:51;;;;;;;3.05;2.85;;;17.60;99.90;;;;;;5023975;28;20033;-76
2022/06/26 01:21:18;;;;;;;4.13;2.70;;;17.50;99.90;;;;;;5017222;28;20393;-75
2022/06/26 01:23:45;;;;;;;3.70;3.40;;;17.50;99.90;;;;;;5023686;28;20041;-75
2022/06/26 01:26:10;;;;;;;4.68;3.28;;;17.50;99.90;;;;;;5022826;28;20112;-75
2022/06/26 01:28:36;;;;;;;3.40;3.10;;;17.50;99.90;;;;;;5022348;28;20160;-75
2022/06/26 01:31:02;;;;;;;2.97;2.78;;;17.50;99.90;;;;;;5024600;28;20076;-76
2022/06/26 01:33:27;;;;;;;3.30;3.00;;;17.50;99.90;;;;;;5021080;28;20041;-76
2022/06/26 01:35:53;;;;;;;3.10;2.90;;;17.50;99.90;;;;;;5023975;28;20544;-76
2022/06/26 01:38:21;;;;;;;2.90;2.70;;;17.50;99.90;;;;;;5024310;28;20022;-75
2022/06/26 01:40:48;;;;;;;3.83;3.00;;;17.40;99.90;;;;;;5022455;28;20112;-75
2022/06/26 01:43:17;;;;;;;3.10;2.90;;;17.40;99.90;;;;;;5021394;28;20601;-75
2022/06/26 01:45:44;;;;;;;3.50;2.90;;;17.40;99.90;;;;;;5021833;28;20501;-75
2022/06/26 01:48:10;;;;;;;4.65;3.10;;;17.40;99.90;;;;;;5018041;28;20044;-75
2022/06/26 01:50:36;;;;;;;2.88;2.60;;;17.40;99.90;;;;;;5018028;28;20021;-76
2022/06/26 01:53:02;;;;;;;4.15;2.80;;;17.30;99.90;;;;;;5025938;28;20493;-75
2022/06/26 01:55:28;;;;;;;3.75;2.88;;;17.30;99.90;;;;;;5019406;28;20105;-76
2022/06/26 01:57:54;;;;;;;3.50;3.20;;;17.40;99.90;;;;;;5023546;28;20183;-75
2022/06/26 02:00:20;;;;;;;3.00;2.80;;;17.30;99.90;;;;;;5023139;28;20041;-75
2022/06/26 02:02:46;;;;;;;4.13;3.10;;;17.40;99.90;;;;;;5020703;28;20038;-75
2022/06/26 02:05:12;;;;;;;3.00;2.80;;;17.40;99.90;;;;;;5022674;28;20115;-76
2022/06/26 02:07:38;;;;;;;3.83;3.10;;;17.40;99.90;;;;;;5023489;28;20030;-75
2022/06/26 02:15:33;;;;;;;3.38;3.00;;;17.20;99.90;;;;;;5016007;28;20125;-75
2022/06/26 02:17:59;;;;;;;3.47;3.17;;;17.20;99.90;;;;;;5021023;28;20156;-75
2022/06/26 02:20:25;;;;;;;3.00;2.80;;;17.20;99.90;;;;;;5022307;28;20021;-75
2022/06/26 02:22:51;;;;;;;3.30;3.00;;;17.10;99.90;;;;;;5025109;28;20025;-76
2022/06/26 02:25:16;;;;;;;3.55;3.25;;;17.10;99.90;;;;;;5025488;28;20115;-75
2022/06/26 02:27:42;;;;;;;4.85;3.05;;;17.10;99.90;;;;;;5022851;28;20038;-75
2022/06/26 02:30:08;;;;;;;3.10;2.90;;;17.10;99.90;;;;;;5021881;28;22852;-75
2022/06/26 02:32:33;;;;;;;3.38;3.03;;;17.10;99.90;;;;;;5021804;28;20047;-75
2022/06/26 02:34:59;;;;;;;3.00;2.70;;;17.10;99.90;;;;;;5021034;28;20647;-75
2022/06/26 02:37:25;;;;;;;4.07;3.10;;;17.10;99.90;;;;;;5018707;28;20375;-75
2022/06/26 02:39:50;;;;;;;3.65;3.30;;;17.10;99.90;;;;;;5018353;28;20053;-75
2022/06/26 02:42:16;;;;;;;3.67;3.38;;;17.10;99.90;;;;;;5020748;28;20053;-75
2022/06/26 02:44:41;;;;;;;5.53;3.17;;;17.00;99.90;;;;;;5023676;28;20045;-75
2022/06/26 02:47:07;;;;;;;6.03;4.88;;;17.00;99.90;;;;;;5025917;28;20080;-75
2022/06/26 02:49:32;;;;;;;6.00;5.15;;;16.90;99.90;;;;;;5022166;28;20029;-75
2022/06/26 02:51:58;;;;;;;8.85;5.90;;;16.70;99.90;;;;;;5022785;28;20384;-75
2022/06/26 02:54:24;;;;;;;6.80;5.00;;;16.50;99.90;;;;;;5023862;28;20033;-75
2022/06/26 02:56:50;;;;;;;10.38;5.72;;;;;;;;;;5019003;28;20554;-75
2022/06/26 02:59:15;;;;;;;8.68;5.50;;;16.30;99.90;;;;;;5022900;28;20018;-75
2022/06/26 03:01:41;;;;;;;6.22;5.60;;;;;;;;;;5026837;28;20488;-75
2022/06/26 03:04:07;;;;;;;5.43;4.90;;;16.10;99.90;;;;;;5023989;28;20045;-76
2022/06/26 03:06:33;;;;;;;7.05;5.28;;;16.10;99.90;;;;;;5023302;28;20084;-75
2022/06/26 03:08:58;;;;;;;9.40;5.20;;;16.10;99.90;;;;;;5022715;28;20492;-76
2022/06/26 03:11:24;;;;;;;7.07;5.03;;;16.10;99.90;;;;;;5007600;28;20026;-75
2022/06/26 03:13:49;;;;;;;4.97;4.57;;;16.20;99.90;;;;;;5028645;28;20140;-75
2022/06/26 03:16:15;;;;;;;6.85;5.10;;;16.30;99.90;;;;;;5010654;28;20056;-76
2022/06/26 03:18:40;;;;;;;5.55;4.53;;;16.40;99.90;;;;;;5018825;28;20060;-75
2022/06/26 03:21:06;;;;;;;5.47;4.78;;;16.40;99.90;;;;;;5011267;28;20402;-75
2022/06/26 03:26:34;;;;;;;4.95;4.50;;;16.60;99.90;;;;;;5029288;28;20286;-75
2022/06/26 03:29:01;;;;;;;5.00;4.50;;;16.60;99.90;;;;;;5022694;28;20038;-75
2022/06/26 03:31:27;;;;;;;5.38;4.20;;;16.60;99.90;;;;;;5022012;28;20078;-75
2022/06/26 03:33:53;;;;;;;11.32;4.15;;;16.60;99.90;;;;;;5015432;28;20587;-75
2022/06/26 03:36:19;;;;;;;7.18;4.70;;;16.60;99.90;;;;;;5020245;28;20033;-75
2022/06/26 03:38:45;;;;;;;7.40;5.13;;;16.70;99.90;;;;;;5015228;28;20820;-75
2022/06/26 03:41:11;;;;;;;9.82;4.50;;;16.80;99.90;;;;;;5020781;28;20021;-75
2022/06/26 03:43:37;;;;;;;9.32;5.30;;;16.80;99.90;;;;;;5019077;28;20040;-75
2022/06/26 03:46:04;;;;;;;5.43;4.57;;;16.90;99.90;;;;;;5022818;28;20029;-75
2022/06/26 03:48:30;;;;;;;6.78;4.57;;;16.90;99.90;;;;;;5016799;28;20197;-75
2022/06/26 03:50:56;;;;;;;9.73;4.88;;;16.90;99.90;;;;;;5022612;28;20501;-75
2022/06/26 03:53:22;;;;;;;13.07;6.53;;;17.00;99.90;;;;;;5019532;28;20029;-75
2022/06/26 03:55:47;;;;;;;9.70;5.53;;;17.00;99.90;;;;;;5021871;28;20052;-75
2022/06/26 03:58:13;;;;;;;6.22;5.63;;;16.90;99.90;;;;;;5016793;28;20399;-75
2022/06/26 04:00:39;;;;;;;7.82;5.05;;;16.90;99.90;;;;;;5023239;28;20025;-75
2022/06/26 04:03:06;;;;;;;7.35;4.65;;;16.90;99.90;;;;;;5015896;28;20029;-76
2022/06/26 04:05:33;;;;;;;6.88;4.40;;;16.80;99.90;;;;;;5019810;28;20172;-75
2022/06/26 04:07:59;;;;;;;6.13;3.78;;;16.80;99.90;;;;;;5036301;28;20066;-75
2022/06/26 04:10:25;;;;;;;4.13;3.72;;;16.70;99.90;;;;;;5022944;28;20033;-75
2022/06/26 04:12:51;;;;;;;4.70;4.10;;;16.70;99.90;;;;;;5018149;28;20377;-75
2022/06/26 04:15:17;;;;;;;6.55;4.40;;;16.70;99.90;;;;;;5020713;28;20380;-75
2022/06/26 04:17:43;;;;;;;4.53;4.13;;;17.00;99.90;;;;;;5030795;28;20047;-75
2022/06/26 04:20:09;;;;;;;6.60;4.20;;;18.90;99.90;;;;;;5025003;28;20021;-76
2022/06/26 04:22:35;;;;;;;7.45;3.90;;;21.10;99.90;;;;;;5024814;28;20026;-75
2022/06/26 04:25:01;;;;;;;6.20;3.80;;;22.60;99.90;;;;;;5023767;28;20040;-75
2022/06/26 04:27:27;;;;;;;3.60;3.30;;;23.20;99.90;;;;;;5026092;28;20044;-76
2022/06/26 04:29:53;;;;;;;5.47;3.88;;;22.60;99.90;;;;;;5027875;28;20389;-75
2022/06/26 04:32:18;;;;;;;4.95;3.72;;;21.50;99.90;;;;;;5020979;28;20036;-75
2022/06/26 04:34:44;;;;;;;5.15;3.92;;;20.80;99.90;;;;;;5028221;28;20092;-75
2022/06/26 04:37:10;;;;;;;4.18;3.78;;;20.40;99.90;;;;;;5031324;28;20545;-74
2022/06/26 04:39:35;;;;;;;5.00;3.60;;;20.20;99.90;;;;;;5031906;28;20060;-74
2022/06/26 04:42:01;;;;;;;4.85;3.63;;;20.00;99.90;;;;;;5023366;28;20021;-74
2022/06/26 04:44:26;;;;;;;3.92;3.50;;;20.00;99.90;;;;;;5028501;28;20102;-74
2022/06/26 04:46:52;;;;;;;4.80;3.60;;;19.90;99.90;;;;;;5022664;28;20104;-74
2022/06/26 04:49:18;;;;;;;4.03;3.63;;;19.90;99.90;;;;;;5021794;28;20034;-74
2022/06/26 04:51:44;;;;;;;4.07;3.67;;;19.90;99.90;;;;;;5026049;28;20029;-74
2022/06/26 04:54:10;;;;;;;8.38;3.60;;;20.00;99.90;;;;;;5023830;28;20308;-74
2022/06/26 04:56:36;;;;;;;6.30;3.83;;;20.10;99.90;;;;;;5037970;28;20029;-75
2022/06/26 04:59:03;;;;;;;3.75;3.22;;;20.10;99.90;;;;;;5018158;28;20493;-74
2022/06/26 05:01:29;;;;;;;6.32;3.20;;;20.10;99.90;;;;;;5026334;28;20026;-74
2022/06/26 05:03:55;;;;;;;3.30;3.00;;;20.10;99.90;;;;;;5016611;28;20036;-74
2022/06/26 05:06:21;;;;;;;4.82;3.90;;;20.10;99.90;;;;;;5026065;28;20026;-74
2022/06/26 05:08:46;;;;;;;3.80;3.40;;;20.10;99.90;;;;;;5030477;28;20052;-74
2022/06/26 05:11:13;;;;;;;6.80;3.35;;;20.20;99.90;;;;;;5027624;28;20122;-74
2022/06/26 05:13:39;;;;;;;5.05;3.72;;;20.10;99.90;;;;;;5022364;28;20107;-74
2022/06/26 05:16:04;;;;;;;6.97;4.00;;;20.00;99.90;;;;;;5020896;28;20499;-75
2022/06/26 05:18:30;;;;;;;7.95;4.15;;;19.80;99.90;;;;;;5025598;28;20021;-75
2022/06/26 05:20:56;;;;;;;7.07;4.22;;;19.70;99.90;;;;;;5024663;28;20138;-75
2022/06/26 05:23:22;;;;;;;8.35;4.57;;;19.60;99.90;;;;;;5022723;28;20032;-75
2022/06/26 05:25:48;;;;;;;7.93;4.60;;;19.50;99.90;;;;;;5011863;28;20030;-75
2022/06/26 05:28:13;;;;;;;7.05;4.32;;;19.40;99.90;;;;;;5011948;28;20021;-75
2022/06/26 05:30:39;;;;;;;5.50;4.47;;;19.40;99.90;;;;;;5036528;28;20029;-75
2022/06/26 05:33:05;;;;;;;7.30;3.88;;;19.30;99.90;;;;;;5032397;28;20210;-75
2022/06/26 05:35:31;;;;;;;5.40;4.40;;;19.30;99.90;;;;;;5024129;28;20029;-75
2022/06/26 05:37:57;;;;;;;7.47;4.70;;;19.20;99.90;;;;;;5024898;28;20033;-75
2022/06/26 05:40:22;;;;;;;6.55;4.05;;;19.20;99.90;;;;;;5026051;28;20075;-75
2022/06/26 05:42:48;;;;;;;7.78;4.38;;;19.10;99.90;;;;;;5025334;28;20489;-75
2022/06/26 05:45:14;;;;;;;6.78;4.10;;;19.10;99.90;;;;;;5025110;28;20029;-75
2022/06/26 05:47:39;;;;;;;4.60;4.07;;;19.10;99.90;;;;;;5017898;28;20108;-75
2022/06/26 05:50:06;;;;;;;9.10;4.03;;;19.10;99.90;;;;;;5023048;28;20040;-75
2022/06/26 05:52:32;;;;;;;8.52;4.60;;;19.20;99.90;;;;;;5029886;28;20021;-75
2022/06/26 05:54:58;;;;;;;7.38;4.70;;;19.20;99.90;;;;;;5012005;28;20461;-75
2022/06/26 05:57:25;;;;;;;5.45;4.15;;;19.10;99.90;;;;;;5013847;28;20025;-75
2022/06/26 05:59:51;;;;;;;6.68;4.30;;;19.20;99.90;;;;;;5027303;28;20389;-75
2022/06/26 06:02:17;;;;;;;6.07;4.07;;;19.30;99.90;;;;;;5022091;28;20029;-76
2022/06/26 06:04:42;;;;;;;6.85;3.80;;;19.50;99.90;;;;;;5018634;28;20041;-76
2022/06/26 06:07:08;;;;;;;4.22;3.78;;;19.70;99.90;;;;;;5014318;28;20183;-75
2022/06/26 06:09:34;;;;;;;5.47;3.67;;;20.00;99.90;;;;;;5013988;28;20072;-75
2022/06/26 06:12:00;;;;;;;6.97;3.45;;;20.30;99.90;;;;;;4359161;28;10001126;-72
2022/06/26 06:14:26;;;;;;;3.70;3.40;;;20.50;99.90;;;;;;5072551;28;20046;-74
2022/06/26 06:16:51;;;;;;;5.80;3.08;;;20.80;99.90;;;;;;5069657;28;20059;-75
2022/06/26 06:19:17;;;;;;;4.32;2.85;;;21.10;99.90;;;;;;5070587;28;20101;-74
2022/06/26 06:21:43;;;;;;;5.53;3.30;;;21.40;99.90;;;;;;5073065;28;21029;-74
2022/06/26 06:24:08;;;;;;;6.13;3.22;;;21.50;99.90;;;;;;5074085;28;20028;-74
2022/06/26 06:26:34;;;;;;;6.15;3.70;;;21.70;99.90;;;;;;5070656;28;20028;-75
2022/06/26 06:29:00;;;;;;;3.85;3.03;;;21.90;99.90;;;;;;5073353;28;20395;-74
2022/06/26 06:31:25;;;;;;;3.20;2.90;;;22.00;99.90;;;;;;5071542;28;20064;-74
2022/06/26 06:33:51;;;;;;;5.00;2.88;;;22.20;99.90;;;;;;5064157;28;20024;-73
2022/06/26 06:36:17;;;;;;;4.93;3.17;;;22.40;99.90;;;;;;5073057;28;20122;-73
2022/06/26 06:38:43;;;;;;;3.63;2.88;;;22.60;99.90;;;;;;5069809;28;20044;-74
2022/06/26 06:41:09;;;;;;;6.90;2.95;;;22.90;99.90;;;;;;5071843;28;20102;-73
2022/06/26 06:43:34;;;;;;;5.50;2.85;;;23.10;99.90;;;;;;5054067;28;20049;-74
2022/06/26 06:46:00;;;;;;;3.33;2.90;;;23.30;99.90;;;;;;5013165;28;20452;-77
2022/06/26 06:48:25;;;;;;;4.47;2.83;;;23.60;99.90;;;;;;5013727;28;20057;-76
2022/06/26 06:50:52;;;;;;;6.13;3.20;;;23.70;99.90;;;;;;5016468;28;20029;-76
2022/06/26 06:53:19;;;;;;;3.45;2.80;;;23.90;99.90;;;;;;5018313;28;20034;-76
2022/06/26 06:55:45;;;;;;;4.70;2.95;;;24.10;99.90;;;;;;5008058;28;20045;-75
2022/06/26 06:58:11;;;;;;;6.15;2.95;;;24.30;99.90;;;;;;5017531;28;20026;-75
2022/06/26 07:00:37;;;;;;;4.68;2.50;;;24.50;99.90;;;;;;5018563;28;20037;-73
2022/06/26 07:03:04;;;;;;;2.88;2.33;;;24.50;99.90;;;;;;5001137;28;20029;-75
2022/06/26 07:05:30;;;;;;;7.25;2.72;;;24.70;99.90;;;;;;4670505;28;10000732;-74
2022/06/26 07:07:56;;;;;;;5.18;2.92;;;24.80;99.90;;;;;;5020091;28;20041;-79
2022/06/26 07:10:22;;;;;;;6.43;2.97;;;25.00;99.90;;;;;;5016550;28;20064;-80
2022/06/26 07:12:57;;;;;;;5.35;2.63;;;25.20;99.90;;;;;;5013417;28;20735;-81
2022/06/26 07:15:23;;;;;;;6.22;2.70;;;25.30;99.90;;;;;;5010622;28;20120;-79
2022/06/26 07:17:49;;;;;;;4.40;2.70;;;25.20;99.90;;;;;;5009863;28;20026;-75
2022/06/26 07:20:15;;;;;;;3.28;2.40;;;25.20;99.90;;;;;;5021462;28;20036;-75
2022/06/26 07:22:41;;;;;;;3.47;2.40;;;25.20;99.90;;;;;;5012528;28;20093;-76
2022/06/26 07:25:07;;;;;;;8.13;3.00;;;25.30;99.90;;;;;;5018414;28;20535;-75
2022/06/26 07:27:33;;;;;;;2.67;2.47;;;25.20;99.90;;;;;;5009145;28;20036;-73
2022/06/26 07:29:59;;;;;;;4.57;2.75;;;25.20;99.90;;;;;;5003605;28;20030;-73
2022/06/26 07:32:25;;;;;;;3.08;2.45;;;25.00;99.90;;;;;;5018048;28;20025;-73
2022/06/26 07:34:50;;;;;;;4.00;2.67;;;25.00;99.90;;;;;;5024187;28;20058;-73
2022/06/26 07:37:16;;;;;;;2.58;2.15;;;24.90;99.90;;;;;;5034967;28;20055;-73
2022/06/26 07:39:41;;;;;;;2.78;2.40;;;24.90;99.90;;;;;;5020243;28;20025;-73
2022/06/26 07:42:07;;;;;;;4.60;2.08;;;24.90;99.90;;;;;;5022556;28;20674;-73
2022/06/26 07:44:33;;;;;;;4.03;2.25;;;24.90;99.90;;;;;;5013086;28;20065;-73
2022/06/26 07:46:59;;;;;;;7.60;2.42;;;24.90;99.90;;;;;;5018394;28;20448;-73
2022/06/26 07:49:24;;;;;;;3.00;2.50;;;24.90;99.90;;;;;;5024697;28;20175;-73
2022/06/26 07:51:51;;;;;;;3.25;2.40;;;25.00;99.90;;;;;;5024690;28;20444;-73
2022/06/26 07:54:17;;;;;;;3.67;2.20;;;25.00;99.90;;;;;;5014447;28;20046;-73
2022/06/26 07:56:43;;;;;;;3.47;2.28;;;25.20;99.90;;;;;;5009799;28;20030;-74
2022/06/26 07:59:09;;;;;;;2.75;2.45;;;25.30;99.90;;;;;;5025931;28;20025;-74
2022/06/26 08:01:35;;;;;;;2.90;2.30;;;25.30;99.90;;;;;;5031170;28;20045;-74
2022/06/26 08:04:01;;;;;;;4.35;2.15;;;25.30;99.90;;;;;;5011945;28;20037;-75
2022/06/26 08:06:27;;;;;;;3.90;2.30;;;25.20;99.90;;;;;;5027360;28;20044;-74
2022/06/26 08:08:53;;;;;;;5.90;2.38;;;25.30;99.90;;;;;;5027027;28;20033;-75
2022/06/26 08:11:19;;;;;;;4.60;1.92;;;25.20;99.90;;;;;;5039891;28;20025;-75
2022/06/26 08:13:46;;;;;;;4.32;2.10;;;25.30;99.90;;;;;;5022573;28;20107;-75
2022/06/26 08:16:11;;;;;;;3.47;1.83;;;25.40;99.90;;;;;;5028582;28;20064;-74
2022/06/26 08:18:37;;;;;;;2.85;1.90;;;25.40;99.90;;;;;;5010282;28;20033;-74
2022/06/26 08:23:48;;;;;;;1.83;1.60;;;25.80;99.90;;;;;;5016802;28;20059;-73
2022/06/26 08:26:13;;;;;;;2.67;1.60;;;26.20;99.90;;;;;;5047468;28;20516;-74
2022/06/26 08:28:39;;;;;;;4.30;1.70;;;26.50;99.50;;;;;;5022384;28;20089;-74
2022/06/26 08:31:04;;;;;;;1.50;1.40;;;26.40;98.60;;;;;;5008608;28;20034;-75
2022/06/26 08:33:30;;;;;;;4.43;1.58;;;26.50;98.60;;;;;;5018166;28;20480;-74
2022/06/26 08:35:56;;;;;;;1.75;1.40;;;26.60;98.30;;;;;;5015253;28;20034;-74
2022/06/26 08:38:21;;;;;;;4.10;1.45;;;26.50;98.20;;;;;;5016618;28;20052;-73
2022/06/26 08:40:47;;;;;;;2.40;1.10;;;26.60;98.70;;;;;;5010365;28;20291;-73
2022/06/26 08:43:13;;;;;;;1.50;1.20;;;26.60;97.60;;;;;;4328339;28;10000738;-73
2022/06/26 08:45:41;;;;;;;1.80;1.30;;;26.50;96.90;;;;;;5017410;28;20041;-73
2022/06/26 08:48:08;;;;;;;1.40;1.30;;;26.50;97.10;;;;;;5024316;28;20041;-73
2022/06/26 08:50:34;;;;;;;1.40;1.30;;;26.50;97.50;;;;;;5028120;28;20493;-73
2022/06/26 08:53:01;;;;;;;1.60;1.50;;;26.60;98.00;;;;;;5021635;28;20112;-73
2022/06/26 08:55:27;;;;;;;1.70;1.50;;;26.70;97.40;;;;;;5020108;28;20029;-73
2022/06/26 08:57:53;;;;;;;3.17;1.45;;;26.70;97.10;;;;;;5024378;28;20029;-73
2022/06/26 09:00:19;;;;;;;1.50;1.40;;;26.70;96.30;;;;;;5029192;28;20029;-73
2022/06/26 09:02:46;;;;;;;2.40;1.50;;;26.70;97.20;;;;;;5026762;28;20052;-74
2022/06/26 09:05:12;;;;;;;2.22;1.70;;;26.70;97.80;;;;;;5016920;28;20099;-73
2022/06/26 09:07:45;;;;;;;2.88;1.50;;;26.60;98.00;;;;;;5024736;28;20049;-73
2022/06/26 09:10:11;;;;;;;2.47;1.55;;;26.60;97.80;;;;;;5023493;28;20040;-73
2022/06/26 09:12:37;;;;;;;1.50;1.27;;;26.50;97.40;;;;;;5035330;28;20060;-73
2022/06/26 09:15:03;;;;;;;1.88;1.10;;;26.50;96.60;;;;;;5023780;28;20721;-73
2022/06/26 09:17:29;;;;;;;1.30;1.20;;;26.70;96.60;;;;;;5030014;28;20032;-73
2022/06/26 09:19:55;;;;;;;2.05;1.02;;;27.00;95.80;;;;;;5030868;28;20025;-74
2022/06/26 09:22:22;;;;;;;2.65;1.33;;;27.10;94.20;;;;;;5022396;28;20022;-73
2022/06/26 09:24:54;;;;;;;2.03;1.23;;;27.30;94.10;;;;;;5030699;28;20519;-73
2022/06/26 09:27:21;;;;;;;3.20;1.00;;;27.40;94.10;;;;;;5024668;28;20033;-74
2022/06/26 09:29:56;;;;;;;5.10;1.40;;;27.50;92.20;;;;;;5029602;28;20029;-73
2022/06/26 09:32:24;;;;;;;1.60;1.30;;;27.50;91.50;;;;;;5012703;28;20026;-73
2022/06/26 09:34:54;;;;;;;1.52;1.20;;;27.40;91.60;;;;;;5030612;28;20045;-73
2022/06/26 09:37:22;;;;;;;1.60;1.25;;;27.30;91.80;;;;;;5029870;28;20501;-73
2022/06/26 09:39:47;;;;;;;2.72;1.30;;;27.20;92.00;;;;;;5029781;28;20056;-73
2022/06/26 09:42:19;;;;;;;1.98;1.27;;;27.20;92.60;;;;;;5030199;28;20618;-73
2022/06/26 09:44:49;;;;;;;2.55;1.38;;;27.00;92.50;;;;;;5017029;28;20036;-73
2022/06/26 09:47:29;;;;;;;1.90;1.20;;;27.10;92.10;;;;;;5028753;28;20022;-73
2022/06/26 09:50:00;;;;;;;1.27;1.17;;;27.10;91.80;;;;;;5026591;28;20037;-73
2022/06/26 09:52:29;;;;;;;1.40;1.30;;;27.20;91.30;;;;;;5029082;28;20026;-73
2022/06/26 09:54:56;;;;;;;1.60;1.20;;;27.20;91.50;;;;;;5040719;28;20030;-73
2022/06/26 09:57:22;;;;;;;1.40;1.30;;;27.30;90.20;;;;;;5018899;28;20068;-73
2022/06/26 09:59:48;;;;;;;3.13;1.38;;;27.30;90.70;;;;;;5029569;28;20026;-73
2022/06/26 10:07:50;;;;;;;0.98;0.98;;;27.90;89.00;;;;;;5016699;28;20041;-73
2022/06/26 10:10:19;;;;;;;2.15;0.90;;;28.30;86.30;;;;;;5012280;28;20390;-74
2022/06/26 10:12:47;;;;;;;2.63;0.80;;;28.60;82.90;;;;;;5017945;28;20033;-73
2022/06/26 10:15:14;;;;;;;1.17;0.90;;;28.80;82.10;;;;;;5018218;28;20101;-73
2022/06/26 10:17:52;;;;;;;2.35;0.70;;;28.80;79.60;;;;;;5036460;28;20040;-73
2022/06/26 10:20:22;;;;;;;0.95;0.80;;;29.00;78.70;;;;;;5021014;28;20051;-74
2022/06/26 10:22:47;;;;;;;1.42;0.80;;;29.20;78.00;;;;;;5030069;28;20037;-73
2022/06/26 10:25:25;;;;;;;2.08;0.60;;;29.20;74.20;;;;;;5029138;28;20025;-73
2022/06/26 10:27:51;;;;;;;1.20;0.80;;;29.00;72.80;;;;;;5039645;28;20049;-74
2022/06/26 10:30:20;;;;;;;1.10;0.80;;;28.90;72.30;;;;;;5028850;28;20071;-74
2022/06/26 10:33:04;;;;;;;1.05;0.80;;;29.10;73.60;;;;;;5029343;28;20025;-73
2022/06/26 10:35:41;;;;;;;1.50;0.82;;;29.30;75.10;;;;;;5010804;28;20040;-74
2022/06/26 10:38:25;;;;;;;0.90;0.90;;;29.50;70.80;;;;;;5012970;28;20113;-73
2022/06/26 10:44:04;;;;;;;2.28;0.65;;;29.50;69.20;;;;;;5019379;28;20072;-74
2022/06/26 10:46:44;;;;;;;1.30;0.60;;;29.40;68.20;;;;;;5037476;28;20136;-74
2022/06/26 10:49:11;;;;;;;0.60;0.57;;;29.30;66.50;;;;;;5028659;28;20041;-73
2022/06/26 10:51:44;;;;;;;0.75;0.50;;;29.20;66.70;;;;;;5020660;28;20041;-73
2022/06/26 10:54:25;;;;;;;0.90;0.60;;;29.20;64.80;;;;;;5034224;28;20033;-73
2022/06/26 10:57:14;;;;;;;0.43;0.43;;;29.20;64.70;;;;;;5017635;28;20053;-73
2022/06/26 10:59:41;;;;;;;1.45;0.60;;;29.30;62.50;;;;;;5028574;28;20105;-73
2022/06/26 11:02:11;;;;;;;0.85;0.40;;;29.20;62.20;;;;;;5029110;28;20044;-73
2022/06/26 11:04:46;;;;;;;2.15;0.40;;;29.20;61.50;;;;;;5025500;28;20498;-73
2022/06/26 11:07:14;;;;;;;1.27;0.40;;;29.10;61.20;;;;;;5028638;28;20086;-73
2022/06/26 11:09:40;;;;;;;0.50;0.50;;;28.90;63.00;;;;;;5019885;28;20060;-73
2022/06/26 11:12:06;;;;;;;0.32;0.30;;;28.80;63.40;;;;;;5026130;28;20061;-73
2022/06/26 11:14:31;;;;;;;0.40;0.40;;;28.70;61.40;;;;;;5010869;28;20046;-73
2022/06/26 11:16:57;;;;;;;0.40;0.40;;;28.60;63.80;;;;;;5028116;28;20025;-73
2022/06/26 11:19:25;;;;;;;1.75;0.50;;;28.50;62.90;;;;;;5028042;28;20109;-73
2022/06/26 11:22:12;;;;;;;0.50;0.50;;;28.60;64.30;;;;;;5043364;28;20444;-73
2022/06/26 11:24:56;;;;;;;0.50;0.50;;;28.60;64.60;;;;;;5028347;28;20457;-73
2022/06/26 11:27:24;;;;;;;1.63;0.80;;;28.80;64.30;;;;;;5024663;28;20555;-73
2022/06/26 11:29:51;;;;;;;0.80;0.75;;;28.90;65.70;;;;;;5026954;28;20037;-73
2022/06/26 11:32:21;;;;;;;0.70;0.70;;;29.20;66.50;;;;;;5028232;28;20044;-73
2022/06/26 11:34:51;;;;;;;3.03;0.60;;;29.60;79.70;;;;;;5024972;28;20761;-73
2022/06/26 11:37:35;;;;;;;0.60;0.60;;;30.10;81.30;;;;;;5028072;28;20069;-74
2022/06/26 11:40:14;;;;;;;1.35;0.80;;;30.60;79.00;;;;;;5028062;28;20021;-73
2022/06/26 11:42:40;;;;;;;0.70;0.70;;;30.90;75.90;;;;;;5027348;28;20056;-73
2022/06/26 11:45:06;;;;;;;1.70;0.70;;;31.00;75.10;;;;;;5029347;28;20036;-74
2022/06/26 11:47:34;;;;;;;2.40;0.70;;;30.90;72.40;;;;;;5024448;28;20181;-73
2022/06/26 11:49:59;;;;;;;3.10;0.90;;;30.90;73.10;;;;;;5032913;28;20037;-73
2022/06/26 11:52:25;;;;;;;0.50;0.50;;;30.80;71.60;;;;;;5027845;28;20026;-73
2022/06/26 11:55:01;;;;;;;0.73;0.65;;;30.90;70.60;;;;;;5026231;28;20035;-73
2022/06/26 11:57:27;;;;;;;1.38;0.68;;;30.70;70.10;;;;;;5025190;28;20532;-73
2022/06/26 11:59:53;;;;;;;0.68;0.68;;;30.70;71.90;;;;;;5032630;28;20017;-73
2022/06/26 12:02:24;;;;;;;0.90;0.80;;;30.70;71.90;;;;;;5025004;28;20021;-74
2022/06/26 12:05:00;;;;;;;0.70;0.70;;;30.70;71.70;;;;;;5022868;28;20036;-73
2022/06/26 12:07:38;;;;;;;1.70;0.70;;;30.80;71.60;;;;;;5037722;28;20219;-73
2022/06/26 12:10:04;;;;;;;0.63;0.50;;;30.90;70.70;;;;;;5027397;28;20033;-74
2022/06/26 12:12:29;;;;;;;0.60;0.60;;;30.70;70.30;;;;;;5026985;28;20053;-72
2022/06/26 12:14:55;;;;;;;0.80;0.70;;;30.50;73.10;;;;;;5037832;28;20060;-73
2022/06/26 12:17:22;;;;;;;0.90;0.70;;;30.30;73.70;;;;;;5017557;28;20642;-73
2022/06/26 12:19:48;;;;;;;0.65;0.65;;;30.40;75.40;;;;;;5007981;28;20109;-73
2022/06/26 12:22:24;;;;;;;1.20;0.70;;;30.50;73.60;;;;;;5030639;28;20124;-73
2022/06/26 12:24:51;;;;;;;0.85;0.60;;;30.70;73.50;;;;;;5027464;28;20033;-73
2022/06/26 12:27:16;;;;;;;1.80;0.73;;;30.70;71.60;;;;;;5025260;28;20041;-73
2022/06/26 12:29:42;;;;;;;1.00;0.70;;;31.00;72.20;;;;;;5013227;28;20047;-73
2022/06/26 12:32:07;;;;;;;1.10;0.65;;;31.30;72.60;;;;;;5034576;28;20042;-73
2022/06/26 12:34:33;;;;;;;0.70;0.70;;;31.50;71.50;;;;;;5026859;28;20716;-73
2022/06/26 12:36:58;;;;;;;0.95;0.70;;;31.40;69.20;;;;;;5019611;28;20029;-74
2022/06/26 12:39:24;;;;;;;0.60;0.60;;;31.50;90.70;;;;;;5025845;28;20421;-73
2022/06/26 12:41:50;;;;;;;0.60;0.60;;;31.40;80.80;;;;;;5031115;28;20030;-74
2022/06/26 12:44:15;;;;;;;0.60;0.60;;;31.40;79.30;;;;;;5024057;28;20037;-74
2022/06/26 12:46:41;;;;;;;1.27;0.75;;;31.60;81.10;;;;;;5034252;28;20130;-75
2022/06/26 12:49:06;;;;;;;1.80;0.55;;;31.70;59.40;;;;;;5020577;28;20025;-75
2022/06/26 12:51:32;;;;;;;1.13;0.60;;;31.80;59.50;;;;;;5025794;28;20120;-73
2022/06/26 12:53:58;;;;;;;1.92;0.70;;;31.90;58.40;;;;;;5026519;28;20103;-74
2022/06/26 12:56:24;;;;;;;0.60;0.60;;;32.10;58.00;;;;;;5021003;28;20037;-74
2022/06/26 12:58:50;;;;;;;1.02;0.50;;;32.30;57.20;;;;;;5023171;28;20075;-74
2022/06/26 13:01:15;;;;;;;0.68;0.60;;;32.50;56.80;;;;;;5027090;28;20036;-74
2022/06/26 13:03:41;;;;;;;1.20;0.60;;;32.50;55.30;;;;;;5027627;28;20025;-75
2022/06/26 13:06:07;;;;;;;0.80;0.80;;;32.50;56.40;;;;;;5027230;28;20040;-74